sensor_id;sensor_type;location;lat;lon;timestamp;temperature;humidity
12335;DHT22;6233;51.560;9.986;2022-11-02T00:02:51;10.70;99.90
12335;DHT22;6233;51.560;9.986;2022-11-02T00:05:53;10.70;99.90
12335;DHT22;6233;51.560;9.986;2022-11-02T00:08:54;10.60;99.90
12335;DHT22;6233;51.560;9.986;2022-11-02T00:11:56;10.70;99.90
12335;DHT22;6233;51.560;9.986;2022-11-02T00:14:58;10.60;99.90
12335;DHT22;6233;51.560;9.986;2022-11-02T00:18:06;10.60;99.90
12335;DHT22;6233;51.560;9.986;2022-11-02T00:21:10;10.60;99.90
12335;DHT22;6233;51.560;9.986;2022-11-02T00:24:12;10.60;99.90
12335;DHT22;6233;51.560;9.986;2022-11-02T00:27:14;10.60;99.90
12335;DHT22;6233;51.560;9.986;2022-11-02T00:30:16;10.60;99.90
12335;DHT22;6233;51.560;9.986;2022-11-02T00:33:18;10.50;99.90
12335;DHT22;6233;51.560;9.986;2022-11-02T00:36:22;10.50;99.90
12335;DHT22;6233;51.560;9.986;2022-11-02T00:39:25;10.50;99.90
12335;DHT22;6233;51.560;9.986;2022-11-02T00:42:27;10.50;99.90
12335;DHT22;6233;51.560;9.986;2022-11-02T00:45:29;10.50;99.90
12335;DHT22;6233;51.560;9.986;2022-11-02T00:48:30;10.50;99.90
12335;DHT22;6233;51.560;9.986;2022-11-02T00:51:32;10.50;99.90
12335;DHT22;6233;51.560;9.986;2022-11-02T00:54:33;10.50;99.90
12335;DHT22;6233;51.560;9.986;2022-11-02T00:57:39;10.40;99.90
12335;DHT22;6233;51.560;9.986;2022-11-02T01:00:41;10.40;99.90
12335;DHT22;6233;51.560;9.986;2022-11-02T01:03:43;10.40;99.90
12335;DHT22;6233;51.560;9.986;2022-11-02T01:06:45;10.40;99.90
12335;DHT22;6233;51.560;9.986;2022-11-02T01:09:47;10.50;99.90
12335;DHT22;6233;51.560;9.986;2022-11-02T01:12:48;10.50;99.90
12335;DHT22;6233;51.560;9.986;2022-11-02T01:15:50;10.60;99.90
12335;DHT22;6233;51.560;9.986;2022-11-02T01:18:53;10.60;99.90
12335;DHT22;6233;51.560;9.986;2022-11-02T01:21:55;10.50;99.90
12335;DHT22;6233;51.560;9.986;2022-11-02T01:24:57;10.70;99.90
12335;DHT22;6233;51.560;9.986;2022-11-02T01:27:58;10.60;99.90
12335;DHT22;6233;51.560;9.986;2022-11-02T01:31:00;10.70;99.90
12335;DHT22;6233;51.560;9.986;2022-11-02T01:34:02;10.80;99.90
12335;DHT22;6233;51.560;9.986;2022-11-02T01:37:04;10.80;99.90
12335;DHT22;6233;51.560;9.986;2022-11-02T01:40:06;10.90;99.90
12335;DHT22;6233;51.560;9.986;2022-11-02T01:43:24;10.90;99.90
12335;DHT22;6233;51.560;9.986;2022-11-02T01:46:44;11.00;99.90
12335;DHT22;6233;51.560;9.986;2022-11-02T01:49:59;11.00;99.90
12335;DHT22;6233;51.560;9.986;2022-11-02T01:53:02;11.00;99.90
12335;DHT22;6233;51.560;9.986;2022-11-02T01:56:21;11.00;99.90
12335;DHT22;6233;51.560;9.986;2022-11-02T01:59:36;11.00;99.90
12335;DHT22;6233;51.560;9.986;2022-11-02T02:06:09;11.00;99.90
12335;DHT22;6233;51.560;9.986;2022-11-02T02:09:13;11.00;99.90
12335;DHT22;6233;51.560;9.986;2022-11-02T02:12:15;11.00;99.90
12335;DHT22;6233;51.560;9.986;2022-11-02T02:15:17;11.00;99.90
12335;DHT22;6233;51.560;9.986;2022-11-02T02:18:29;11.00;99.90
12335;DHT22;6233;51.560;9.986;2022-11-02T02:29:13;11.00;99.90
12335;DHT22;6233;51.560;9.986;2022-11-02T02:35:59;11.00;99.90
12335;DHT22;6233;51.560;9.986;2022-11-02T02:39:17;10.90;99.90
12335;DHT22;6233;51.560;9.986;2022-11-02T02:42:32;11.00;99.90
12335;DHT22;6233;51.560;9.986;2022-11-02T02:48:43;10.90;99.90
12335;DHT22;6233;51.560;9.986;2022-11-02T02:51:49;10.90;99.90
12335;DHT22;6233;51.560;9.986;2022-11-02T02:54:52;10.90;99.90
12335;DHT22;6233;51.560;9.986;2022-11-02T02:57:56;10.90;99.90
12335;DHT22;6233;51.560;9.986;2022-11-02T03:01:01;11.00;99.90
12335;DHT22;6233;51.560;9.986;2022-11-02T03:04:04;11.00;99.90
12335;DHT22;6233;51.560;9.986;2022-11-02T03:07:10;10.90;99.90
12335;DHT22;6233;51.560;9.986;2022-11-02T03:10:20;10.90;99.90
12335;DHT22;6233;51.560;9.986;2022-11-02T03:17:16;10.90;99.90
12335;DHT22;6233;51.560;9.986;2022-11-02T03:23:53;10.80;99.90
12335;DHT22;6233;51.560;9.986;2022-11-02T03:27:14;10.70;99.90
12335;DHT22;6233;51.560;9.986;2022-11-02T03:30:20;10.70;99.90
12335;DHT22;6233;51.560;9.986;2022-11-02T03:33:35;10.70;99.90
12335;DHT22;6233;51.560;9.986;2022-11-02T03:40:48;10.70;99.90
12335;DHT22;6233;51.560;9.986;2022-11-02T03:43:56;10.70;99.90
12335;DHT22;6233;51.560;9.986;2022-11-02T03:47:00;10.60;99.90
12335;DHT22;6233;51.560;9.986;2022-11-02T03:50:07;10.70;99.90
12335;DHT22;6233;51.560;9.986;2022-11-02T03:53:14;10.70;99.90
12335;DHT22;6233;51.560;9.986;2022-11-02T03:56:52;10.70;99.90
12335;DHT22;6233;51.560;9.986;2022-11-02T04:00:17;10.70;99.90
12335;DHT22;6233;51.560;9.986;2022-11-02T04:03:21;10.70;99.90
12335;DHT22;6233;51.560;9.986;2022-11-02T04:06:23;10.70;99.90
12335;DHT22;6233;51.560;9.986;2022-11-02T04:09:26;10.70;99.90
12335;DHT22;6233;51.560;9.986;2022-11-02T04:12:28;10.70;99.90
12335;DHT22;6233;51.560;9.986;2022-11-02T04:15:49;10.70;99.90
12335;DHT22;6233;51.560;9.986;2022-11-02T04:18:51;10.70;99.90
12335;DHT22;6233;51.560;9.986;2022-11-02T04:22:12;10.70;99.90
12335;DHT22;6233;51.560;9.986;2022-11-02T04:25:32;10.80;99.90
12335;DHT22;6233;51.560;9.986;2022-11-02T04:28:34;10.80;99.90
12335;DHT22;6233;51.560;9.986;2022-11-02T04:31:35;10.80;99.90
12335;DHT22;6233;51.560;9.986;2022-11-02T04:34:37;10.80;99.90
12335;DHT22;6233;51.560;9.986;2022-11-02T04:37:42;10.90;99.90
12335;DHT22;6233;51.560;9.986;2022-11-02T04:41:03;10.90;99.90
12335;DHT22;6233;51.560;9.986;2022-11-02T04:44:24;10.90;99.90
12335;DHT22;6233;51.560;9.986;2022-11-02T04:47:29;10.90;99.90
12335;DHT22;6233;51.560;9.986;2022-11-02T04:50:31;10.90;99.90
12335;DHT22;6233;51.560;9.986;2022-11-02T04:53:33;10.90;99.90
12335;DHT22;6233;51.560;9.986;2022-11-02T04:56:35;10.80;99.90
12335;DHT22;6233;51.560;9.986;2022-11-02T04:59:37;10.90;99.90
12335;DHT22;6233;51.560;9.986;2022-11-02T05:02:39;10.90;99.90
12335;DHT22;6233;51.560;9.986;2022-11-02T05:05:41;10.80;99.90
12335;DHT22;6233;51.560;9.986;2022-11-02T05:08:43;10.80;99.90
12335;DHT22;6233;51.560;9.986;2022-11-02T05:11:45;10.80;99.90
12335;DHT22;6233;51.560;9.986;2022-11-02T05:14:46;10.70;99.90
12335;DHT22;6233;51.560;9.986;2022-11-02T05:17:48;10.70;99.90
12335;DHT22;6233;51.560;9.986;2022-11-02T05:20:51;10.70;99.90
12335;DHT22;6233;51.560;9.986;2022-11-02T05:23:53;10.70;99.90
12335;DHT22;6233;51.560;9.986;2022-11-02T05:26:55;10.70;99.90
12335;DHT22;6233;51.560;9.986;2022-11-02T05:29:56;10.60;99.90
12335;DHT22;6233;51.560;9.986;2022-11-02T05:33:01;10.60;99.90
12335;DHT22;6233;51.560;9.986;2022-11-02T05:36:04;10.60;99.90
12335;DHT22;6233;51.560;9.986;2022-11-02T05:39:05;10.60;99.90
12335;DHT22;6233;51.560;9.986;2022-11-02T05:42:07;10.60;99.90
12335;DHT22;6233;51.560;9.986;2022-11-02T05:45:09;10.60;99.90
12335;DHT22;6233;51.560;9.986;2022-11-02T05:48:12;10.50;99.90
12335;DHT22;6233;51.560;9.986;2022-11-02T05:51:19;10.50;99.90
12335;DHT22;6233;51.560;9.986;2022-11-02T05:54:27;10.50;99.90
12335;DHT22;6233;51.560;9.986;2022-11-02T05:57:28;10.50;99.90
12335;DHT22;6233;51.560;9.986;2022-11-02T06:00:30;10.50;99.90
12335;DHT22;6233;51.560;9.986;2022-11-02T06:03:32;10.50;99.90
12335;DHT22;6233;51.560;9.986;2022-11-02T06:06:34;10.40;99.90
12335;DHT22;6233;51.560;9.986;2022-11-02T06:09:36;10.40;99.90
12335;DHT22;6233;51.560;9.986;2022-11-02T06:12:37;10.40;99.90
12335;DHT22;6233;51.560;9.986;2022-11-02T06:15:39;10.40;99.90
12335;DHT22;6233;51.560;9.986;2022-11-02T06:18:41;10.30;99.90
12335;DHT22;6233;51.560;9.986;2022-11-02T06:21:42;10.30;99.90
12335;DHT22;6233;51.560;9.986;2022-11-02T06:24:49;10.30;99.90
12335;DHT22;6233;51.560;9.986;2022-11-02T06:27:51;10.30;99.90
12335;DHT22;6233;51.560;9.986;2022-11-02T06:30:53;10.30;99.90
12335;DHT22;6233;51.560;9.986;2022-11-02T06:33:55;10.30;99.90
12335;DHT22;6233;51.560;9.986;2022-11-02T06:37:00;10.30;99.90
12335;DHT22;6233;51.560;9.986;2022-11-02T06:40:02;10.30;99.90
12335;DHT22;6233;51.560;9.986;2022-11-02T06:43:03;10.40;99.90
12335;DHT22;6233;51.560;9.986;2022-11-02T06:46:17;10.40;99.90
12335;DHT22;6233;51.560;9.986;2022-11-02T06:49:19;10.50;99.90
12335;DHT22;6233;51.560;9.986;2022-11-02T06:52:20;10.50;99.90
12335;DHT22;6233;51.560;9.986;2022-11-02T06:55:22;10.60;99.90
12335;DHT22;6233;51.560;9.986;2022-11-02T06:58:24;10.70;99.90
12335;DHT22;6233;51.560;9.986;2022-11-02T07:01:26;10.80;99.90
12335;DHT22;6233;51.560;9.986;2022-11-02T07:04:28;10.90;99.90
12335;DHT22;6233;51.560;9.986;2022-11-02T07:07:30;11.10;99.90
12335;DHT22;6233;51.560;9.986;2022-11-02T07:10:31;11.30;99.90
12335;DHT22;6233;51.560;9.986;2022-11-02T07:13:36;11.20;99.90
12335;DHT22;6233;51.560;9.986;2022-11-02T07:16:39;11.20;99.90
12335;DHT22;6233;51.560;9.986;2022-11-02T07:19:44;11.20;99.90
12335;DHT22;6233;51.560;9.986;2022-11-02T07:22:59;11.20;99.90
12335;DHT22;6233;51.560;9.986;2022-11-02T07:26:02;11.20;99.90
12335;DHT22;6233;51.560;9.986;2022-11-02T07:29:05;11.30;99.90
12335;DHT22;6233;51.560;9.986;2022-11-02T07:32:07;11.50;99.90
12335;DHT22;6233;51.560;9.986;2022-11-02T07:35:10;11.60;99.90
12335;DHT22;6233;51.560;9.986;2022-11-02T07:38:12;11.70;99.90
12335;DHT22;6233;51.560;9.986;2022-11-02T07:41:15;11.80;99.90
12335;DHT22;6233;51.560;9.986;2022-11-02T07:44:16;11.90;99.90
12335;DHT22;6233;51.560;9.986;2022-11-02T07:47:20;11.90;99.90
12335;DHT22;6233;51.560;9.986;2022-11-02T07:50:24;12.00;99.90
12335;DHT22;6233;51.560;9.986;2022-11-02T07:53:25;12.10;99.90
12335;DHT22;6233;51.560;9.986;2022-11-02T07:56:27;12.20;99.90
12335;DHT22;6233;51.560;9.986;2022-11-02T07:59:29;12.30;99.90
12335;DHT22;6233;51.560;9.986;2022-11-02T08:02:30;12.50;99.90
12335;DHT22;6233;51.560;9.986;2022-11-02T08:05:34;12.60;99.90
12335;DHT22;6233;51.560;9.986;2022-11-02T08:08:35;12.90;99.90
12335;DHT22;6233;51.560;9.986;2022-11-02T08:11:37;13.30;99.90
12335;DHT22;6233;51.560;9.986;2022-11-02T08:14:39;13.60;99.90
12335;DHT22;6233;51.560;9.986;2022-11-02T08:17:41;13.80;99.90
12335;DHT22;6233;51.560;9.986;2022-11-02T08:20:43;13.90;99.90
12335;DHT22;6233;51.560;9.986;2022-11-02T08:23:46;13.80;99.90
12335;DHT22;6233;51.560;9.986;2022-11-02T08:26:48;13.80;99.90
12335;DHT22;6233;51.560;9.986;2022-11-02T08:29:55;13.60;99.90
12335;DHT22;6233;51.560;9.986;2022-11-02T08:33:09;13.20;99.90
12335;DHT22;6233;51.560;9.986;2022-11-02T08:36:13;13.00;99.90
12335;DHT22;6233;51.560;9.986;2022-11-02T08:39:15;12.90;99.90
12335;DHT22;6233;51.560;9.986;2022-11-02T08:42:19;13.00;99.90
12335;DHT22;6233;51.560;9.986;2022-11-02T08:45:21;13.20;99.90
12335;DHT22;6233;51.560;9.986;2022-11-02T08:48:23;13.30;99.90
12335;DHT22;6233;51.560;9.986;2022-11-02T08:51:25;13.30;99.90
12335;DHT22;6233;51.560;9.986;2022-11-02T08:58:33;13.30;99.90
12335;DHT22;6233;51.560;9.986;2022-11-02T09:01:35;13.30;99.90
12335;DHT22;6233;51.560;9.986;2022-11-02T09:04:37;13.40;99.90
12335;DHT22;6233;51.560;9.986;2022-11-02T09:07:38;13.40;99.90
12335;DHT22;6233;51.560;9.986;2022-11-02T09:10:40;13.60;99.90
12335;DHT22;6233;51.560;9.986;2022-11-02T09:13:42;13.80;99.90
12335;DHT22;6233;51.560;9.986;2022-11-02T09:16:44;13.90;99.90
12335;DHT22;6233;51.560;9.986;2022-11-02T09:19:45;13.90;99.90
12335;DHT22;6233;51.560;9.986;2022-11-02T09:22:47;14.10;99.90
12335;DHT22;6233;51.560;9.986;2022-11-02T09:25:49;14.00;99.90
12335;DHT22;6233;51.560;9.986;2022-11-02T09:28:51;13.90;99.90
12335;DHT22;6233;51.560;9.986;2022-11-02T09:31:52;13.80;99.90
12335;DHT22;6233;51.560;9.986;2022-11-02T09:34:54;13.60;99.90
12335;DHT22;6233;51.560;9.986;2022-11-02T09:37:56;13.50;99.90
12335;DHT22;6233;51.560;9.986;2022-11-02T09:41:04;13.50;99.90
12335;DHT22;6233;51.560;9.986;2022-11-02T09:44:27;13.60;99.90
12335;DHT22;6233;51.560;9.986;2022-11-02T09:47:42;13.60;99.90
12335;DHT22;6233;51.560;9.986;2022-11-02T09:54:45;13.70;99.90
12335;DHT22;6233;51.560;9.986;2022-11-02T09:57:55;13.60;99.90
12335;DHT22;6233;51.560;9.986;2022-11-02T10:01:22;13.50;99.90
12335;DHT22;6233;51.560;9.986;2022-11-02T10:04:54;13.50;99.90
12335;DHT22;6233;51.560;9.986;2022-11-02T10:12:06;13.50;99.90
12335;DHT22;6233;51.560;9.986;2022-11-02T10:15:19;13.50;99.90
12335;DHT22;6233;51.560;9.986;2022-11-02T10:18:24;13.60;99.90
12335;DHT22;6233;51.560;9.986;2022-11-02T10:21:31;13.60;99.90
12335;DHT22;6233;51.560;9.986;2022-11-02T10:24:42;13.70;99.90
12335;DHT22;6233;51.560;9.986;2022-11-02T10:27:59;13.80;99.90
12335;DHT22;6233;51.560;9.986;2022-11-02T10:31:21;13.70;99.90
12335;DHT22;6233;51.560;9.986;2022-11-02T10:34:26;13.70;99.90
12335;DHT22;6233;51.560;9.986;2022-11-02T10:37:43;13.70;99.90
12335;DHT22;6233;51.560;9.986;2022-11-02T10:51:28;14.00;99.90
12335;DHT22;6233;51.560;9.986;2022-11-02T10:54:31;14.20;99.90
12335;DHT22;6233;51.560;9.986;2022-11-02T10:57:37;14.30;99.90
12335;DHT22;6233;51.560;9.986;2022-11-02T11:00:41;14.50;99.90
12335;DHT22;6233;51.560;9.986;2022-11-02T11:06:57;14.40;99.90
12335;DHT22;6233;51.560;9.986;2022-11-02T11:09:59;14.30;99.90
12335;DHT22;6233;51.560;9.986;2022-11-02T11:13:01;14.20;99.90
12335;DHT22;6233;51.560;9.986;2022-11-02T11:16:05;14.30;99.90
12335;DHT22;6233;51.560;9.986;2022-11-02T11:19:35;14.30;99.90
12335;DHT22;6233;51.560;9.986;2022-11-02T11:22:43;14.40;99.90
12335;DHT22;6233;51.560;9.986;2022-11-02T11:29:01;14.50;99.90
12335;DHT22;6233;51.560;9.986;2022-11-02T11:32:03;14.40;99.90
12335;DHT22;6233;51.560;9.986;2022-11-02T11:35:09;14.50;99.90
12335;DHT22;6233;51.560;9.986;2022-11-02T11:38:17;14.40;99.90
12335;DHT22;6233;51.560;9.986;2022-11-02T11:41:20;14.40;99.90
12335;DHT22;6233;51.560;9.986;2022-11-02T11:44:22;14.40;99.90
12335;DHT22;6233;51.560;9.986;2022-11-02T11:47:29;14.40;99.90
12335;DHT22;6233;51.560;9.986;2022-11-02T11:50:32;14.40;99.90
12335;DHT22;6233;51.560;9.986;2022-11-02T11:53:34;14.40;99.90
12335;DHT22;6233;51.560;9.986;2022-11-02T11:56:39;14.30;99.90
12335;DHT22;6233;51.560;9.986;2022-11-02T11:59:48;14.20;99.90
12335;DHT22;6233;51.560;9.986;2022-11-02T12:03:04;14.10;99.90
12335;DHT22;6233;51.560;9.986;2022-11-02T12:06:28;14.00;99.90
12335;DHT22;6233;51.560;9.986;2022-11-02T12:09:37;14.00;99.90
12335;DHT22;6233;51.560;9.986;2022-11-02T12:12:54;13.90;99.90
12335;DHT22;6233;51.560;9.986;2022-11-02T12:19:25;13.90;99.90
12335;DHT22;6233;51.560;9.986;2022-11-02T12:32:40;13.80;99.90
12335;DHT22;6233;51.560;9.986;2022-11-02T12:46:43;13.80;99.90
12335;DHT22;6233;51.560;9.986;2022-11-02T12:50:16;13.90;99.90
12335;DHT22;6233;51.560;9.986;2022-11-02T12:53:50;13.90;99.90
12335;DHT22;6233;51.560;9.986;2022-11-02T12:56:54;13.90;99.90
12335;DHT22;6233;51.560;9.986;2022-11-02T13:00:00;13.90;99.90
12335;DHT22;6233;51.560;9.986;2022-11-02T13:03:26;13.90;99.90
12335;DHT22;6233;51.560;9.986;2022-11-02T13:06:33;13.90;99.90
12335;DHT22;6233;51.560;9.986;2022-11-02T13:09:46;13.90;99.90
12335;DHT22;6233;51.560;9.986;2022-11-02T13:12:56;13.90;99.90
12335;DHT22;6233;51.560;9.986;2022-11-02T13:15:59;13.90;99.90
12335;DHT22;6233;51.560;9.986;2022-11-02T13:19:05;13.90;99.90
12335;DHT22;6233;51.560;9.986;2022-11-02T13:22:13;13.90;99.90
12335;DHT22;6233;51.560;9.986;2022-11-02T13:25:20;13.90;99.90
12335;DHT22;6233;51.560;9.986;2022-11-02T13:31:51;13.90;99.90
12335;DHT22;6233;51.560;9.986;2022-11-02T13:34:54;13.90;99.90
12335;DHT22;6233;51.560;9.986;2022-11-02T13:41:30;13.80;99.90
12335;DHT22;6233;51.560;9.986;2022-11-02T13:44:43;13.80;99.90
12335;DHT22;6233;51.560;9.986;2022-11-02T13:54:48;13.50;99.90
12335;DHT22;6233;51.560;9.986;2022-11-02T13:57:55;13.40;99.90
12335;DHT22;6233;51.560;9.986;2022-11-02T14:01:01;13.40;99.90
12335;DHT22;6233;51.560;9.986;2022-11-02T14:04:11;13.40;99.90
12335;DHT22;6233;51.560;9.986;2022-11-02T14:07:24;13.40;99.90
12335;DHT22;6233;51.560;9.986;2022-11-02T14:10:29;13.30;99.90
12335;DHT22;6233;51.560;9.986;2022-11-02T14:16:56;13.40;99.90
12335;DHT22;6233;51.560;9.986;2022-11-02T14:19:59;13.30;99.90
12335;DHT22;6233;51.560;9.986;2022-11-02T14:26:31;13.30;99.90
12335;DHT22;6233;51.560;9.986;2022-11-02T14:29:49;13.30;99.90
12335;DHT22;6233;51.560;9.986;2022-11-02T14:33:02;13.30;99.90
12335;DHT22;6233;51.560;9.986;2022-11-02T14:43:11;13.30;99.90
12335;DHT22;6233;51.560;9.986;2022-11-02T14:49:50;13.20;99.90
12335;DHT22;6233;51.560;9.986;2022-11-02T14:53:02;13.20;99.90
12335;DHT22;6233;51.560;9.986;2022-11-02T14:56:18;13.20;99.90
12335;DHT22;6233;51.560;9.986;2022-11-02T14:59:32;13.10;99.90
12335;DHT22;6233;51.560;9.986;2022-11-02T15:02:38;13.10;99.90
12335;DHT22;6233;51.560;9.986;2022-11-02T15:05:44;13.10;99.90
12335;DHT22;6233;51.560;9.986;2022-11-02T15:11:56;13.00;99.90
12335;DHT22;6233;51.560;9.986;2022-11-02T15:15:35;13.00;99.90
12335;DHT22;6233;51.560;9.986;2022-11-02T15:18:38;12.90;99.90
12335;DHT22;6233;51.560;9.986;2022-11-02T15:21:40;12.90;99.90
12335;DHT22;6233;51.560;9.986;2022-11-02T15:24:49;12.80;99.90
12335;DHT22;6233;51.560;9.986;2022-11-02T15:27:55;12.80;99.90
12335;DHT22;6233;51.560;9.986;2022-11-02T15:31:04;12.80;99.90
12335;DHT22;6233;51.560;9.986;2022-11-02T15:34:14;12.70;99.90
12335;DHT22;6233;51.560;9.986;2022-11-02T15:37:25;12.70;99.90
12335;DHT22;6233;51.560;9.986;2022-11-02T15:51:01;12.50;99.90
12335;DHT22;6233;51.560;9.986;2022-11-02T16:04:07;12.20;99.90
12335;DHT22;6233;51.560;9.986;2022-11-02T16:07:12;12.10;99.90
12335;DHT22;6233;51.560;9.986;2022-11-02T16:13:23;12.00;99.90
12335;DHT22;6233;51.560;9.986;2022-11-02T16:16:27;12.00;99.90
12335;DHT22;6233;51.560;9.986;2022-11-02T16:19:38;11.90;99.90
12335;DHT22;6233;51.560;9.986;2022-11-02T16:22:48;11.90;99.90
12335;DHT22;6233;51.560;9.986;2022-11-02T16:25:55;11.90;99.90
12335;DHT22;6233;51.560;9.986;2022-11-02T16:28:58;11.80;99.90
12335;DHT22;6233;51.560;9.986;2022-11-02T16:32:02;11.80;99.90
12335;DHT22;6233;51.560;9.986;2022-11-02T16:35:04;11.70;99.90
12335;DHT22;6233;51.560;9.986;2022-11-02T16:38:07;11.70;99.90
12335;DHT22;6233;51.560;9.986;2022-11-02T16:41:09;11.70;99.90
12335;DHT22;6233;51.560;9.986;2022-11-02T16:44:25;11.70;99.90
12335;DHT22;6233;51.560;9.986;2022-11-02T16:47:34;11.60;99.90
12335;DHT22;6233;51.560;9.986;2022-11-02T16:50:36;11.60;99.90
12335;DHT22;6233;51.560;9.986;2022-11-02T16:53:39;11.50;99.90
12335;DHT22;6233;51.560;9.986;2022-11-02T16:56:46;11.50;99.90
12335;DHT22;6233;51.560;9.986;2022-11-02T16:59:57;11.50;99.90
12335;DHT22;6233;51.560;9.986;2022-11-02T17:03:06;11.40;99.90
12335;DHT22;6233;51.560;9.986;2022-11-02T17:06:09;11.40;99.90
12335;DHT22;6233;51.560;9.986;2022-11-02T17:09:29;11.40;99.90
12335;DHT22;6233;51.560;9.986;2022-11-02T17:12:35;11.30;99.90
12335;DHT22;6233;51.560;9.986;2022-11-02T17:15:46;11.30;99.90
12335;DHT22;6233;51.560;9.986;2022-11-02T17:18:48;11.30;99.90
12335;DHT22;6233;51.560;9.986;2022-11-02T17:22:04;11.30;99.90
12335;DHT22;6233;51.560;9.986;2022-11-02T17:28:46;11.20;99.90
12335;DHT22;6233;51.560;9.986;2022-11-02T17:31:53;11.20;99.90
12335;DHT22;6233;51.560;9.986;2022-11-02T17:34:57;11.10;99.90
12335;DHT22;6233;51.560;9.986;2022-11-02T17:38:00;11.10;99.90
12335;DHT22;6233;51.560;9.986;2022-11-02T17:41:02;11.00;99.90
12335;DHT22;6233;51.560;9.986;2022-11-02T17:44:24;11.00;99.90
12335;DHT22;6233;51.560;9.986;2022-11-02T17:47:26;10.90;99.90
12335;DHT22;6233;51.560;9.986;2022-11-02T17:50:29;10.80;99.90
12335;DHT22;6233;51.560;9.986;2022-11-02T17:53:31;10.90;99.90
12335;DHT22;6233;51.560;9.986;2022-11-02T17:56:33;10.80;99.90
12335;DHT22;6233;51.560;9.986;2022-11-02T17:59:34;10.80;99.90
12335;DHT22;6233;51.560;9.986;2022-11-02T18:02:39;10.80;99.90
12335;DHT22;6233;51.560;9.986;2022-11-02T18:05:44;10.70;99.90
12335;DHT22;6233;51.560;9.986;2022-11-02T18:08:51;10.70;99.90
12335;DHT22;6233;51.560;9.986;2022-11-02T18:12:15;10.70;99.90
12335;DHT22;6233;51.560;9.986;2022-11-02T18:15:25;10.60;99.90
12335;DHT22;6233;51.560;9.986;2022-11-02T18:18:28;10.60;99.90
12335;DHT22;6233;51.560;9.986;2022-11-02T18:21:29;10.60;99.90
12335;DHT22;6233;51.560;9.986;2022-11-02T18:24:31;10.50;99.90
12335;DHT22;6233;51.560;9.986;2022-11-02T18:27:32;10.50;99.90
12335;DHT22;6233;51.560;9.986;2022-11-02T18:30:35;10.50;99.90
12335;DHT22;6233;51.560;9.986;2022-11-02T18:33:37;10.50;99.90
12335;DHT22;6233;51.560;9.986;2022-11-02T18:36:39;10.40;99.90
12335;DHT22;6233;51.560;9.986;2022-11-02T18:39:44;10.40;99.90
12335;DHT22;6233;51.560;9.986;2022-11-02T18:42:46;10.40;99.90
12335;DHT22;6233;51.560;9.986;2022-11-02T18:45:52;10.40;99.90
12335;DHT22;6233;51.560;9.986;2022-11-02T18:48:54;10.40;99.90
12335;DHT22;6233;51.560;9.986;2022-11-02T18:51:55;10.30;99.90
12335;DHT22;6233;51.560;9.986;2022-11-02T18:54:57;10.30;99.90
12335;DHT22;6233;51.560;9.986;2022-11-02T18:58:03;10.20;99.90
12335;DHT22;6233;51.560;9.986;2022-11-02T19:01:09;10.20;99.90
12335;DHT22;6233;51.560;9.986;2022-11-02T19:04:13;10.10;99.90
12335;DHT22;6233;51.560;9.986;2022-11-02T19:07:18;10.10;99.90
12335;DHT22;6233;51.560;9.986;2022-11-02T19:10:38;10.10;99.90
12335;DHT22;6233;51.560;9.986;2022-11-02T19:13:43;10.00;99.90
12335;DHT22;6233;51.560;9.986;2022-11-02T19:16:48;10.00;99.90
12335;DHT22;6233;51.560;9.986;2022-11-02T19:19:50;10.00;99.90
12335;DHT22;6233;51.560;9.986;2022-11-02T19:22:53;10.00;99.90
12335;DHT22;6233;51.560;9.986;2022-11-02T19:25:55;10.00;99.90
12335;DHT22;6233;51.560;9.986;2022-11-02T19:28:56;10.00;99.90
12335;DHT22;6233;51.560;9.986;2022-11-02T19:32:06;9.90;99.90
12335;DHT22;6233;51.560;9.986;2022-11-02T19:35:11;9.90;99.90
12335;DHT22;6233;51.560;9.986;2022-11-02T19:38:12;9.80;99.90
12335;DHT22;6233;51.560;9.986;2022-11-02T19:41:15;9.90;99.90
12335;DHT22;6233;51.560;9.986;2022-11-02T19:44:17;9.90;99.90
12335;DHT22;6233;51.560;9.986;2022-11-02T19:47:19;9.80;99.90
12335;DHT22;6233;51.560;9.986;2022-11-02T19:50:21;9.80;99.90
12335;DHT22;6233;51.560;9.986;2022-11-02T19:53:22;9.80;99.90
12335;DHT22;6233;51.560;9.986;2022-11-02T19:56:25;9.80;99.90
12335;DHT22;6233;51.560;9.986;2022-11-02T19:59:28;9.70;99.90
12335;DHT22;6233;51.560;9.986;2022-11-02T20:02:30;9.70;99.90
12335;DHT22;6233;51.560;9.986;2022-11-02T20:05:32;9.80;99.90
12335;DHT22;6233;51.560;9.986;2022-11-02T20:08:34;9.70;99.90
12335;DHT22;6233;51.560;9.986;2022-11-02T20:11:36;9.80;99.90
12335;DHT22;6233;51.560;9.986;2022-11-02T20:14:40;9.80;99.90
12335;DHT22;6233;51.560;9.986;2022-11-02T20:17:44;9.80;99.90
12335;DHT22;6233;51.560;9.986;2022-11-02T20:21:09;9.80;99.90
12335;DHT22;6233;51.560;9.986;2022-11-02T20:24:11;9.80;99.90
12335;DHT22;6233;51.560;9.986;2022-11-02T20:27:13;9.70;99.90
12335;DHT22;6233;51.560;9.986;2022-11-02T20:30:14;9.70;99.90
12335;DHT22;6233;51.560;9.986;2022-11-02T20:33:27;9.70;99.90
12335;DHT22;6233;51.560;9.986;2022-11-02T20:36:29;9.70;99.90
12335;DHT22;6233;51.560;9.986;2022-11-02T20:39:31;9.60;99.90
12335;DHT22;6233;51.560;9.986;2022-11-02T20:42:34;9.60;99.90
12335;DHT22;6233;51.560;9.986;2022-11-02T20:45:36;9.70;99.90
12335;DHT22;6233;51.560;9.986;2022-11-02T20:48:37;9.60;99.90
12335;DHT22;6233;51.560;9.986;2022-11-02T20:51:39;9.60;99.90
12335;DHT22;6233;51.560;9.986;2022-11-02T20:54:41;9.60;99.90
12335;DHT22;6233;51.560;9.986;2022-11-02T20:57:46;9.60;99.90
12335;DHT22;6233;51.560;9.986;2022-11-02T21:00:49;9.60;99.90
12335;DHT22;6233;51.560;9.986;2022-11-02T21:03:51;9.60;99.90
12335;DHT22;6233;51.560;9.986;2022-11-02T21:06:53;9.60;99.90
12335;DHT22;6233;51.560;9.986;2022-11-02T21:09:54;9.60;99.90
12335;DHT22;6233;51.560;9.986;2022-11-02T21:12:56;9.50;99.90
12335;DHT22;6233;51.560;9.986;2022-11-02T21:16:16;9.50;99.90
12335;DHT22;6233;51.560;9.986;2022-11-02T21:19:18;9.50;99.90
12335;DHT22;6233;51.560;9.986;2022-11-02T21:22:23;9.50;99.90
12335;DHT22;6233;51.560;9.986;2022-11-02T21:25:24;9.50;99.90
12335;DHT22;6233;51.560;9.986;2022-11-02T21:28:28;9.50;99.90
12335;DHT22;6233;51.560;9.986;2022-11-02T21:31:30;9.50;99.90
12335;DHT22;6233;51.560;9.986;2022-11-02T21:34:31;9.50;99.90
12335;DHT22;6233;51.560;9.986;2022-11-02T21:37:33;9.50;99.90
12335;DHT22;6233;51.560;9.986;2022-11-02T21:40:35;9.50;99.90
12335;DHT22;6233;51.560;9.986;2022-11-02T21:43:37;9.40;99.90
12335;DHT22;6233;51.560;9.986;2022-11-02T21:46:39;9.50;99.90
12335;DHT22;6233;51.560;9.986;2022-11-02T21:49:40;9.50;99.90
12335;DHT22;6233;51.560;9.986;2022-11-02T21:52:42;9.50;99.90
12335;DHT22;6233;51.560;9.986;2022-11-02T21:55:45;9.40;99.90
12335;DHT22;6233;51.560;9.986;2022-11-02T21:58:55;9.40;99.90
12335;DHT22;6233;51.560;9.986;2022-11-02T22:01:59;9.40;99.90
12335;DHT22;6233;51.560;9.986;2022-11-02T22:05:01;9.40;99.90
12335;DHT22;6233;51.560;9.986;2022-11-02T22:08:02;9.40;99.90
12335;DHT22;6233;51.560;9.986;2022-11-02T22:11:24;9.40;99.90
12335;DHT22;6233;51.560;9.986;2022-11-02T22:14:29;9.40;99.90
12335;DHT22;6233;51.560;9.986;2022-11-02T22:17:31;9.50;99.90
12335;DHT22;6233;51.560;9.986;2022-11-02T22:20:53;9.40;99.90